Time;durP1;ratioP1;P1;durP2;ratioP2;P2;SDS_P1;SDS_P2;PMS_P1;PMS_P2;Temp;Humidity;BMP_temperature;BMP_pressure;BME280_temperature;BME280_humidity;BME280_pressure;Samples;Min_cycle;Max_cycle;Signal;HPM_P1;HPM_P2
2022/05/10 00:01:03;;;;;;;7.40;2.80;;;;;;;14.63;54.18;95323.97;5072238;28;20927;-78
2022/05/10 00:03:33;;;;;;;3.20;2.77;;;;;;;14.69;54.67;95331.31;5072246;28;20444;-77
2022/05/10 00:06:02;;;;;;;2.97;2.70;;;;;;;14.68;54.97;95321.72;5072125;28;20982;-78
2022/05/10 00:08:29;;;;;;;11.70;3.13;;;;;;;14.40;56.32;95319.00;5020909;28;20457;-78
2022/05/10 00:10:56;;;;;;;4.87;3.83;;;;;;;14.27;57.26;95323.75;5072453;28;20874;-77
2022/05/10 00:13:24;;;;;;;5.37;3.70;;;;;;;14.24;58.66;95324.88;5072022;28;20474;-78
2022/05/10 00:15:52;;;;;;;8.17;4.90;;;;;;;14.03;61.14;95313.66;5072015;28;20437;-78
2022/05/10 00:18:22;;;;;;;10.13;6.27;;;;;;;14.08;61.93;95319.31;5072035;28;20488;-78
2022/05/10 00:20:49;;;;;;;5.40;4.77;;;;;;;14.05;61.84;95319.59;5071835;28;20460;-79
2022/05/10 00:23:17;;;;;;;7.90;3.97;;;;;;;14.04;61.41;95317.94;5072333;28;20445;-78
2022/05/10 00:25:44;;;;;;;3.57;3.27;;;;;;;14.02;59.46;95317.25;5072263;28;20508;-79
2022/05/10 00:28:11;;;;;;;2.60;2.40;;;;;;;14.04;58.50;95314.47;5072106;28;20441;-79
2022/05/10 00:30:39;;;;;;;4.97;3.23;;;;;;;14.08;58.75;95318.50;5072175;28;20440;-78
2022/05/10 00:33:07;;;;;;;3.20;2.87;;;;;;;14.09;58.12;95309.59;5072033;28;20444;-78
2022/05/10 00:35:35;;;;;;;3.77;2.90;;;;;;;14.09;57.60;95314.88;5073640;28;20449;-77
2022/05/10 00:38:04;;;;;;;4.30;2.73;;;;;;;14.07;57.93;95311.56;5075799;28;20919;-78
2022/05/10 00:40:35;;;;;;;2.93;2.03;;;;;;;13.96;57.16;95309.91;5076122;28;20444;-76
2022/05/10 00:43:07;;;;;;;2.20;2.00;;;;;;;14.01;56.75;95301.56;5075877;28;20437;-78
2022/05/10 00:45:41;;;;;;;2.60;2.13;;;;;;;13.82;56.12;95305.03;5075885;28;20484;-77
2022/05/10 00:48:18;;;;;;;4.30;2.60;;;;;;;13.85;56.37;95299.47;5076114;28;20444;-77
2022/05/10 00:50:51;;;;;;;3.07;2.77;;;;;;;13.86;56.02;95294.06;5076451;28;20756;-78
2022/05/10 00:53:24;;;;;;;5.30;2.07;;;;;;;13.90;55.95;95297.28;5075713;28;20450;-78
2022/05/10 00:55:59;;;;;;;2.63;2.23;;;;;;;13.95;55.99;95297.69;5040143;28;20441;-78
2022/05/10 00:58:36;;;;;;;2.70;2.50;;;;;;;14.03;55.61;95289.91;5075590;28;20440;-78
2022/05/10 01:01:04;;;;;;;5.10;2.80;;;;;;;14.04;56.24;95296.84;5075880;28;20437;-78
2022/05/10 01:03:35;;;;;;;5.43;2.77;;;;;;;14.02;56.01;95304.06;5023776;28;20437;-77
2022/05/10 01:06:08;;;;;;;5.73;2.50;;;;;;;14.07;56.00;95303.63;5075399;28;21007;-77
2022/05/10 01:08:42;;;;;;;3.20;2.53;;;;;;;14.00;55.39;95295.47;5075326;28;20449;-76
2022/05/10 01:11:15;;;;;;;3.40;2.60;;;;;;;14.00;55.95;95303.38;5075327;28;20459;-78
2022/05/10 01:13:47;;;;;;;2.77;2.30;;;;;;;14.02;56.09;95297.97;5075340;28;20442;-78
2022/05/10 01:16:18;;;;;;;2.90;2.60;;;;;;;14.06;55.73;95294.06;5075502;28;20440;-79
2022/05/10 01:18:46;;;;;;;3.03;2.60;;;;;;;14.08;55.91;95295.56;5074953;28;20472;-77
2022/05/10 01:21:29;;;;;;;2.83;2.53;;;;;;;14.07;55.88;95291.28;5075296;28;20432;-76
2022/05/10 01:24:32;;;;;;;2.77;2.57;;;;;;;14.10;56.69;95296.25;5075323;28;20440;-78
2022/05/10 01:27:22;;;;;;;11.03;2.47;;;;;;;14.03;56.33;95289.91;4973483;28;20488;-78
2022/05/10 01:29:57;;;;;;;3.93;3.10;;;;;;;13.90;56.70;95290.19;4974082;28;20441;-78
2022/05/10 01:35:15;;;;;;;3.67;3.00;;;;;;;13.90;56.95;95284.09;4916331;29;20995;-78
2022/05/10 01:37:47;;;;;;;3.90;3.07;;;;;;;13.85;57.01;95283.66;4916140;29;20459;-78
2022/05/10 01:40:24;;;;;;;3.10;2.80;;;;;;;13.84;57.30;95282.81;4916090;29;20452;-78
2022/05/10 01:42:58;;;;;;;3.33;2.70;;;;;;;13.93;56.74;95292.56;4916250;29;20444;-78
2022/05/10 01:45:34;;;;;;;2.87;2.50;;;;;;;13.98;57.08;95294.75;4915521;29;20564;-78
2022/05/10 01:48:03;;;;;;;4.30;3.03;;;;;;;13.95;56.92;95287.13;4916052;29;20451;-78
2022/05/10 01:50:39;;;;;;;3.50;3.20;;;;;;;13.95;57.00;95285.34;4916063;29;20786;-78
2022/05/10 01:53:10;;;;;;;3.60;2.70;;;;;;;14.01;56.86;95285.72;4915970;29;20450;-77
2022/05/10 01:55:39;;;;;;;4.70;2.80;;;;;;;14.01;56.98;95286.56;4915909;29;20444;-78
2022/05/10 01:58:10;;;;;;;3.23;2.83;;;;;;;14.04;56.83;95288.91;4916104;29;20472;-78
2022/05/10 02:00:42;;;;;;;3.27;2.97;;;;;;;14.06;56.85;95283.50;4915749;29;20456;-78
2022/05/10 02:03:17;;;;;;;4.17;3.23;;;;;;;14.01;57.39;95276.00;4935329;28;20447;-78
2022/05/10 02:05:52;;;;;;;3.00;2.73;;;;;;;14.03;57.05;95284.63;4992755;28;20480;-77
2022/05/10 02:08:34;;;;;;;3.47;2.50;;;;;;;13.97;57.41;95282.56;4992813;28;20443;-77
2022/05/10 02:11:07;;;;;;;4.50;3.03;;;;;;;13.96;57.80;95288.81;4992424;28;20568;-78
2022/05/10 02:13:40;;;;;;;2.53;2.33;;;;;;;13.95;58.58;95287.97;5069225;28;20445;-78
2022/05/10 02:16:16;;;;;;;3.20;2.90;;;;;;;13.93;58.68;95289.09;5074042;28;20969;-78
2022/05/10 02:18:49;;;;;;;3.13;2.70;;;;;;;13.86;59.24;95287.97;5074030;28;20559;-77
2022/05/10 02:21:19;;;;;;;3.63;2.83;;;;;;;13.79;58.85;95284.22;5074027;28;20437;-78
2022/05/10 02:23:52;;;;;;;4.30;3.47;;;;;;;13.64;59.47;95279.38;5073963;28;20448;-77
2022/05/10 02:26:27;;;;;;;3.23;2.90;;;;;;;13.58;59.91;95279.91;5074006;28;20494;-78
2022/05/10 02:29:00;;;;;;;6.90;2.97;;;;;;;13.56;60.14;95286.31;5073867;28;20456;-78
2022/05/10 02:33:06;;;;;;;4.70;3.13;;;;;;;13.51;59.99;95285.88;5073830;28;20858;-78
2022/05/10 02:34:26;;;;;;;3.50;3.20;;;;;;;13.45;60.90;95279.38;5073699;28;20425;-78
2022/05/10 02:36:53;;;;;;;4.20;3.63;;;;;;;13.47;60.92;95282.69;5073504;28;20543;-78
2022/05/10 02:39:20;;;;;;;7.97;3.90;;;;;;;13.34;60.68;95282.16;5073367;28;20445;-78
2022/05/10 02:41:47;;;;;;;3.87;3.40;;;;;;;13.28;61.47;95277.41;5073366;28;20440;-78
2022/05/10 02:44:14;;;;;;;3.97;3.30;;;;;;;13.23;61.31;95274.34;5073314;28;20448;-78
2022/05/10 02:46:43;;;;;;;7.97;3.03;;;;;;;13.14;61.60;95277.78;5073633;28;20480;-78
2022/05/10 02:49:09;;;;;;;4.73;3.30;;;;;;;13.13;62.30;95276.94;5073373;28;20445;-78
2022/05/10 02:51:36;;;;;;;5.57;3.10;;;;;;;13.12;62.14;95287.63;5021957;28;20445;-77
2022/05/10 02:54:03;;;;;;;9.10;3.40;;;;;;;13.07;62.35;95287.19;5073446;28;20451;-78
2022/05/10 02:56:31;;;;;;;5.47;2.87;;;;;;;12.98;62.96;95289.66;5072865;28;20445;-77
2022/05/10 02:59:03;;;;;;;4.17;3.40;;;;;;;12.94;63.12;95285.63;5072587;28;20448;-79
2022/05/10 03:01:34;;;;;;;4.83;3.10;;;;;;;12.98;62.73;95288.81;5072909;28;20951;-78
2022/05/10 03:04:05;;;;;;;4.33;3.37;;;;;;;12.87;62.87;95279.25;5072882;28;20449;-77
2022/05/10 03:06:32;;;;;;;4.60;3.30;;;;;;;12.92;62.98;95292.84;5073148;28;20484;-77
2022/05/10 03:09:00;;;;;;;5.10;4.37;;;;;;;12.91;62.82;95288.53;5073109;28;20466;-78
2022/05/10 03:11:28;;;;;;;9.03;3.50;;;;;;;12.91;62.80;95295.59;5072960;28;20503;-79
2022/05/10 03:13:55;;;;;;;9.70;3.50;;;;;;;12.88;63.09;95290.59;5072966;28;20452;-78
2022/05/10 03:16:23;;;;;;;6.40;3.37;;;;;;;12.85;63.14;95286.44;5072629;28;20808;-78
2022/05/10 03:18:50;;;;;;;5.27;3.07;;;;;;;12.84;63.07;95292.69;5072772;28;20495;-78
2022/05/10 03:21:18;;;;;;;5.70;3.53;;;;;;;12.86;63.00;95296.00;5072713;28;20935;-77
2022/05/10 03:23:45;;;;;;;3.37;3.07;;;;;;;12.90;63.41;95291.31;5072720;28;20460;-79
2022/05/10 03:26:16;;;;;;;6.70;4.00;;;;;;;12.94;62.87;95292.69;5072600;28;21006;-78
2022/05/10 03:28:43;;;;;;;6.07;3.27;;;;;;;13.00;62.79;95285.09;5072729;28;20445;-77
2022/05/10 03:31:11;;;;;;;4.10;3.27;;;;;;;13.05;62.91;95294.41;5072885;28;20811;-78
2022/05/10 03:33:38;;;;;;;4.73;3.10;;;;;;;13.02;62.39;95291.06;5072757;28;20896;-78
2022/05/10 03:36:06;;;;;;;5.30;3.67;;;;;;;13.13;61.97;95297.19;5072551;28;20444;-78
2022/05/10 03:38:36;;;;;;;4.77;3.13;;;;;;;13.21;61.69;95298.19;5072514;28;20441;-78
2022/05/10 03:41:03;;;;;;;10.77;3.70;;;;;;;13.21;61.63;95308.75;5072698;28;20459;-78
2022/05/10 03:43:31;;;;;;;8.57;4.13;;;;;;;13.25;62.01;95304.88;5072471;28;20440;-78
2022/05/10 03:45:58;;;;;;;5.17;3.57;;;;;;;13.32;61.59;95310.44;5072354;28;20507;-78
2022/05/10 03:48:25;;;;;;;4.03;3.60;;;;;;;13.53;61.27;95303.22;5072386;28;20433;-78
2022/05/10 03:50:52;;;;;;;4.83;4.20;;;;;;;13.89;60.64;95304.38;5072218;28;20818;-78
2022/05/10 03:53:19;;;;;;;5.73;3.50;;;;;;;14.20;59.38;95318.22;5020721;28;20447;-78
2022/05/10 03:55:47;;;;;;;3.80;3.13;;;;;;;14.41;57.97;95314.53;5072478;28;20452;-77
2022/05/10 03:58:14;;;;;;;3.73;3.10;;;;;;;14.59;57.43;95312.03;5072513;28;20457;-78
2022/05/10 04:00:41;;;;;;;4.07;3.77;;;;;;;14.71;57.48;95314.34;5072552;28;20555;-78
2022/05/10 04:03:08;;;;;;;4.20;3.10;;;;;;;14.78;57.20;95326.00;5072324;28;20943;-79
2022/05/10 04:05:35;;;;;;;6.00;3.97;;;;;;;14.96;57.44;95325.22;5072215;28;20950;-78
2022/05/10 04:08:02;;;;;;;8.47;5.70;;;;;;;15.23;57.87;95335.81;5072122;28;20448;-78
2022/05/10 04:10:29;;;;;;;12.43;5.20;;;;;;;15.60;57.25;95321.69;5078193;28;20437;-78
2022/05/10 04:12:57;;;;;;;13.90;6.20;;;;;;;16.01;55.59;95331.69;5079249;28;20475;-78
2022/05/10 04:15:25;;;;;;;18.97;6.17;;;;;;;16.14;54.77;95330.44;5078945;28;20818;-78
2022/05/10 04:17:53;;;;;;;14.33;4.90;;;;;;;16.35;53.65;95325.66;5078445;28;20444;-78
2022/05/10 04:20:20;;;;;;;8.47;4.70;;;;;;;16.58;53.62;95325.97;5079022;28;20437;-78
2022/05/10 04:22:47;;;;;;;7.10;4.70;;;;;;;16.95;53.12;95328.38;5078777;28;20445;-79
2022/05/10 04:25:14;;;;;;;5.77;3.77;;;;;;;17.34;51.45;95324.22;5078709;28;20442;-78
2022/05/10 04:27:41;;;;;;;4.83;3.00;;;;;;;17.50;49.39;95312.00;5078512;28;20998;-79
2022/05/10 04:30:11;;;;;;;6.73;3.50;;;;;;;17.82;48.78;95327.19;5078912;28;20464;-78
2022/05/10 04:32:38;;;;;;;4.47;2.90;;;;;;;18.05;48.00;95322.91;5078654;28;20444;-78
2022/05/10 04:35:06;;;;;;;6.80;3.70;;;;;;;18.15;47.65;95318.25;5078984;28;20447;-78
2022/05/10 04:37:33;;;;;;;5.13;3.50;;;;;;;18.36;46.90;95312.44;5078769;28;20441;-77
2022/05/10 04:42:45;;;;;;;5.37;3.00;;;;;;;18.60;46.17;95332.84;5078516;28;20795;-78
2022/05/10 04:45:14;;;;;;;3.50;3.20;;;;;;;18.89;45.74;95329.69;5078641;28;20445;-78
2022/05/10 04:47:41;;;;;;;4.53;3.80;;;;;;;19.24;44.98;95332.88;5078524;28;20842;-78
2022/05/10 04:50:09;;;;;;;7.07;3.50;;;;;;;19.57;44.09;95330.94;5078584;28;20444;-78
2022/05/10 04:52:37;;;;;;;5.27;3.93;;;;;;;19.76;43.54;95323.34;5078515;28;20475;-78
2022/05/10 04:55:05;;;;;;;4.23;3.37;;;;;;;19.96;43.33;95329.06;5079316;28;20448;-79
2022/05/10 04:57:32;;;;;;;3.43;3.13;;;;;;;20.13;42.84;95335.06;5026830;28;20441;-78
2022/05/10 04:59:59;;;;;;;8.93;3.70;;;;;;;20.34;42.68;95329.91;5078459;28;20471;-78
2022/05/10 05:02:27;;;;;;;14.90;5.33;;;;;;;20.60;42.57;95334.06;5078347;28;20449;-78
2022/05/10 05:04:54;;;;;;;10.77;5.07;;;;;;;20.55;42.74;95331.94;5078308;28;20947;-78
2022/05/10 05:07:21;;;;;;;10.30;4.27;;;;;;;20.63;42.52;95342.53;5078195;28;20475;-78
2022/05/10 05:09:48;;;;;;;10.70;4.40;;;;;;;20.50;43.20;95333.47;5078165;28;20443;-78
2022/05/10 05:12:15;;;;;;;10.20;5.00;;;;;;;19.98;44.39;95335.03;5078520;28;20447;-79
2022/05/10 05:14:42;;;;;;;9.33;4.40;;;;;;;20.32;44.43;95336.44;5078259;28;20876;-79
2022/05/10 05:17:09;;;;;;;17.00;6.57;;;;;;;20.48;44.06;95335.50;5078322;28;20437;-78
2022/05/10 05:19:37;;;;;;;4.83;4.33;;;;;;;20.81;44.11;95338.69;5078358;28;20503;-78
2022/05/10 05:22:05;;;;;;;16.40;4.57;;;;;;;21.19;43.03;95334.97;5074519;28;20452;-78
2022/05/10 05:24:31;;;;;;;6.23;4.80;;;;;;;21.43;42.19;95336.53;5023630;28;20928;-78
2022/05/10 05:26:58;;;;;;;8.80;3.93;;;;;;;21.76;41.06;95334.28;5074788;28;20476;-78
2022/05/10 05:29:27;;;;;;;7.40;4.33;;;;;;;22.04;40.50;95326.38;5074942;28;20441;-79
2022/05/10 05:31:54;;;;;;;12.13;4.43;;;;;;;22.43;40.42;95328.59;5074932;28;20449;-78
2022/05/10 05:34:21;;;;;;;10.63;4.87;;;;;;;22.67;39.01;95332.72;5074530;28;20445;-79
2022/05/10 05:39:30;;;;;;;14.43;4.10;;;;;;;23.04;37.92;95330.75;5073850;28;20519;-78
2022/05/10 05:41:58;;;;;;;7.30;4.10;;;;;;;23.13;38.01;95332.25;5074896;28;20445;-78
2022/05/10 05:44:25;;;;;;;6.27;3.60;;;;;;;23.19;37.33;95320.75;5074524;28;20440;-78
2022/05/10 05:46:57;;;;;;;6.57;3.70;;;;;;;23.21;37.30;95331.28;5074936;28;20469;-79
2022/05/10 05:49:26;;;;;;;9.65;4.30;;;;;;;23.37;36.93;95331.75;5074049;28;20449;-79
2022/05/10 05:51:57;;;;;;;7.50;4.37;;;;;;;23.49;37.57;95330.19;5074592;28;20215;-79
2022/05/10 05:54:25;;;;;;;10.60;4.67;;;;;;;23.49;37.98;95324.00;5074842;28;20444;-78
2022/05/10 05:56:59;;;;;;;8.30;3.90;;;;;;;23.50;37.59;95320.31;5074307;28;20457;-79
2022/05/10 05:59:26;;;;;;;10.47;4.27;;;;;;;22.71;38.55;95328.63;5074162;28;20445;-79
2022/05/10 06:01:53;;;;;;;7.10;5.30;;;;;;;22.26;39.14;95316.50;5074436;28;20459;-79
2022/05/10 06:04:20;;;;;;;10.00;5.53;;;;;;;21.96;40.17;95327.28;5074189;28;20452;-79
2022/05/10 06:06:47;;;;;;;5.10;4.17;;;;;;;22.30;40.33;95320.47;5074265;28;20480;-79
2022/05/10 06:09:19;;;;;;;13.53;4.90;;;;;;;22.37;39.28;95320.53;5074395;28;20441;-79
2022/05/10 06:11:46;;;;;;;10.03;5.03;;;;;;;22.48;39.33;95320.81;5074005;28;20535;-79
2022/05/10 06:14:13;;;;;;;5.03;4.63;;;;;;;22.47;38.74;95324.53;5074225;28;20531;-78
2022/05/10 06:16:41;;;;;;;7.83;4.50;;;;;;;22.63;39.75;95318.09;5074243;28;20449;-78
2022/05/10 06:19:09;;;;;;;16.23;5.63;;;;;;;22.71;39.15;95325.97;5073769;28;20469;-78
2022/05/10 06:21:35;;;;;;;17.10;4.00;;;;;;;22.90;39.08;95323.66;5073857;28;20440;-78
2022/05/10 06:24:03;;;;;;;7.77;4.33;;;;;;;22.93;38.91;95316.06;5074139;28;20447;-79
2022/05/10 06:26:31;;;;;;;11.37;5.07;;;;;;;22.79;38.98;95322.31;5074048;28;20449;-79
2022/05/10 06:28:58;;;;;;;8.33;4.40;;;;;;;23.10;38.58;95319.25;5073995;28;20455;-78
2022/05/10 06:31:25;;;;;;;12.53;4.57;;;;;;;23.43;39.05;95325.63;5038232;28;20421;-78
2022/05/10 06:33:52;;;;;;;8.07;4.07;;;;;;;23.59;37.90;95315.63;5072678;28;20894;-78
2022/05/10 06:36:19;;;;;;;4.50;4.10;;;;;;;23.71;38.62;95316.72;5073569;28;20961;-77
2022/05/10 06:38:46;;;;;;;5.53;4.03;;;;;;;23.69;37.57;95316.06;5021971;28;20471;-79
2022/05/10 06:41:13;;;;;;;6.37;3.90;;;;;;;23.62;38.39;95315.22;5073568;28;20932;-78
2022/05/10 06:43:41;;;;;;;7.53;4.00;;;;;;;23.96;37.38;95316.97;5022080;28;20958;-79
2022/05/10 06:46:12;;;;;;;8.90;3.70;;;;;;;24.24;35.91;95314.16;5073480;28;20713;-78
2022/05/10 06:48:39;;;;;;;9.07;4.83;;;;;;;24.51;35.78;95315.88;5073652;28;20583;-78
2022/05/10 06:51:07;;;;;;;6.73;4.63;;;;;;;24.32;35.44;95314.84;5073536;28;20440;-78
2022/05/10 06:53:35;;;;;;;11.90;3.90;;;;;;;24.32;35.55;95314.84;5073359;28;20453;-79
2022/05/10 06:56:02;;;;;;;7.80;4.13;;;;;;;24.33;35.77;95311.13;5073415;28;20440;-78
2022/05/10 06:58:29;;;;;;;5.17;4.20;;;;;;;24.26;36.96;95320.13;5072902;28;20813;-79
2022/05/10 07:00:58;;;;;;;3.60;3.30;;;;;;;24.55;36.45;95317.09;5073314;28;20448;-79
2022/05/10 07:03:28;;;;;;;7.13;3.87;;;;;;;24.79;36.18;95315.66;5072888;28;20447;-77
2022/05/10 07:05:56;;;;;;;5.23;3.80;;;;;;;24.62;35.21;95312.59;5072188;28;21015;-79
2022/05/10 07:08:23;;;;;;;5.10;3.70;;;;;;;24.55;34.94;95311.72;5072782;28;20576;-78
2022/05/10 07:10:50;;;;;;;3.90;3.50;;;;;;;24.52;35.20;95309.47;5072817;28;20448;-77
2022/05/10 07:13:18;;;;;;;6.73;3.90;;;;;;;24.55;34.67;95309.06;5073089;28;20463;-78
2022/05/10 07:15:45;;;;;;;4.50;2.83;;;;;;;24.45;35.40;95311.31;5072668;28;20437;-78
2022/05/10 07:18:14;;;;;;;6.63;3.20;;;;;;;24.44;35.72;95315.03;5072614;28;20471;-79
2022/05/10 07:20:41;;;;;;;6.97;3.73;;;;;;;24.59;35.49;95307.63;5072868;28;20449;-78
2022/05/10 07:23:09;;;;;;;11.67;3.90;;;;;;;24.61;35.30;95307.44;5072607;28;20444;-79
2022/05/10 07:25:36;;;;;;;8.57;3.77;;;;;;;24.26;35.35;95306.72;5072507;28;20521;-78
2022/05/10 07:28:05;;;;;;;18.50;4.07;;;;;;;24.53;35.57;95302.25;5072806;28;20835;-78
2022/05/10 07:30:32;;;;;;;10.37;4.47;;;;;;;24.77;35.56;95309.69;5072566;28;20440;-78
2022/05/10 07:33:00;;;;;;;6.10;3.40;;;;;;;24.38;35.49;95311.34;5072463;28;20445;-78
2022/05/10 07:38:14;;;;;;;6.43;3.47;;;;;;;24.64;34.27;95305.16;5072368;28;20452;-80
2022/05/10 07:40:41;;;;;;;4.27;3.60;;;;;;;24.61;34.35;95297.50;5072282;28;20456;-79
2022/05/10 07:43:10;;;;;;;13.40;3.47;;;;;;;24.52;35.59;95301.41;5072046;28;20437;-79
2022/05/10 07:45:37;;;;;;;7.63;4.27;;;;;;;24.57;33.90;95298.94;5072134;28;20451;-78
2022/05/10 07:48:06;;;;;;;5.50;3.60;;;;;;;24.80;34.57;95295.84;5072270;28;20485;-79
2022/05/10 07:50:35;;;;;;;3.83;3.50;;;;;;;24.77;34.58;95303.47;5072170;28;20850;-79
2022/05/10 07:53:06;;;;;;;6.00;3.47;;;;;;;24.80;35.27;95308.44;5072296;28;20449;-78
2022/05/10 07:55:37;;;;;;;10.37;4.27;;;;;;;24.72;35.32;95301.44;5072388;28;20452;-79
2022/05/10 07:58:05;;;;;;;14.27;4.13;;;;;;;24.44;35.14;95293.59;5072322;28;20931;-78
2022/05/10 08:00:32;;;;;;;10.03;4.47;;;;;;;24.52;35.54;95297.91;5072706;28;20460;-78
2022/05/10 08:02:59;;;;;;;13.30;4.00;;;;;;;24.32;34.67;95297.91;5071938;28;20448;-79
2022/05/10 08:05:27;;;;;;;11.30;3.87;;;;;;;24.27;33.62;95294.97;5072277;28;20453;-79
2022/05/10 08:07:55;;;;;;;16.07;3.90;;;;;;;24.70;33.46;95293.59;5071893;28;20477;-79
2022/05/10 08:10:22;;;;;;;10.67;4.17;;;;;;;24.86;33.14;95284.25;5072417;28;20444;-77
2022/05/10 08:12:49;;;;;;;17.47;4.30;;;;;;;24.76;32.21;95294.59;5072017;28;20448;-78
2022/05/10 08:15:16;;;;;;;13.13;4.10;;;;;;;24.89;31.42;95296.47;5071985;28;20823;-79
2022/05/10 08:17:43;;;;;;;10.70;4.20;;;;;;;24.85;32.10;95276.41;5071874;28;20453;-78
2022/05/10 08:20:11;;;;;;;12.03;4.53;;;;;;;25.09;31.94;95286.53;5072353;28;20903;-78
2022/05/10 08:22:38;;;;;;;18.10;4.60;;;;;;;25.26;31.17;95282.38;5071961;28;20959;-79
2022/05/10 08:25:07;;;;;;;12.93;4.43;;;;;;;25.10;30.72;95284.66;5072203;28;20437;-78
2022/05/10 08:27:34;;;;;;;18.83;4.80;;;;;;;25.13;30.58;95284.25;5071800;28;20574;-78
2022/05/10 08:30:01;;;;;;;13.17;3.70;;;;;;;25.22;29.83;95289.19;5020140;28;20445;-79
2022/05/10 08:32:28;;;;;;;9.60;3.97;;;;;;;25.11;29.79;95271.03;5072148;28;20440;-77
2022/05/10 08:34:55;;;;;;;6.30;3.63;;;;;;;25.19;29.27;95286.94;5072348;28;20439;-79
2022/05/10 08:37:21;;;;;;;13.90;3.67;;;;;;;25.29;28.17;95283.78;5020427;28;20974;-78
2022/05/10 08:39:48;;;;;;;9.03;3.50;;;;;;;25.37;30.50;95282.72;5071996;28;20965;-78
2022/05/10 08:42:22;;;;;;;4.10;3.67;;;;;;;25.32;29.25;95278.81;5071674;28;20958;-78
2022/05/10 08:44:55;;;;;;;7.00;3.07;;;;;;;25.25;28.97;95283.41;5071981;28;20447;-78
2022/05/10 08:47:24;;;;;;;5.80;3.43;;;;;;;25.25;30.37;95275.34;5071630;28;20492;-78
2022/05/10 08:49:55;;;;;;;9.43;3.30;;;;;;;25.23;29.48;95280.09;5072085;28;20441;-79
2022/05/10 08:52:28;;;;;;;4.63;2.70;;;;;;;24.99;29.97;95283.47;5071793;28;20424;-79
2022/05/10 08:54:55;;;;;;;6.80;3.60;;;;;;;25.01;29.40;95282.22;5071933;28;20424;-77
2022/05/10 08:57:37;;;;;;;10.07;3.00;;;;;;;25.18;29.62;95268.34;5074528;28;20515;-78
2022/05/10 09:00:08;;;;;;;5.63;3.40;;;;;;;25.16;28.54;95276.63;5075340;28;20452;-79
2022/05/10 09:02:41;;;;;;;6.50;3.00;;;;;;;25.24;28.61;95270.19;5075620;28;20437;-78
2022/05/10 09:05:17;;;;;;;3.23;2.93;;;;;;;25.33;28.69;95272.41;5075085;28;20806;-78
2022/05/10 09:07:52;;;;;;;10.20;2.97;;;;;;;25.35;29.08;95257.94;5076502;28;20487;-78
2022/05/10 09:10:21;;;;;;;3.30;2.53;;;;;;;25.32;28.35;95262.69;5075392;28;20444;-78
2022/05/10 09:12:56;;;;;;;3.43;2.93;;;;;;;24.96;28.77;95259.69;5075359;28;20448;-79
2022/05/10 09:15:23;;;;;;;3.20;2.80;;;;;;;25.05;29.80;95253.06;5075135;28;20448;-78
2022/05/10 09:17:50;;;;;;;5.63;3.20;;;;;;;24.90;30.35;95255.97;5074919;28;20795;-78
2022/05/10 09:20:17;;;;;;;3.47;2.60;;;;;;;24.50;29.80;95260.56;5075091;28;20444;-78
2022/05/10 09:23:05;;;;;;;3.60;3.13;;;;;;;24.83;29.93;95251.63;5075186;28;20954;-79
2022/05/10 09:25:35;;;;;;;6.60;3.63;;;;;;;24.69;30.37;95259.72;5023029;28;20452;-78
2022/05/10 09:28:12;;;;;;;9.50;3.97;;;;;;;24.90;30.27;95252.47;5074672;28;20500;-78
2022/05/10 09:30:39;;;;;;;4.60;3.40;;;;;;;25.06;30.90;95245.84;5074970;28;20444;-79
2022/05/10 09:36:03;;;;;;;15.53;4.00;;;;;;;25.17;30.01;95242.53;5074923;28;20946;-77
2022/05/10 09:38:31;;;;;;;4.70;3.10;;;;;;;24.57;30.53;95241.75;5074564;28;20447;-78
2022/05/10 09:40:58;;;;;;;4.00;3.13;;;;;;;23.42;32.81;95237.44;5074516;28;20429;-78
2022/05/10 09:43:29;;;;;;;9.93;2.80;;;;;;;23.47;32.14;95243.84;5074794;28;20445;-79
2022/05/10 09:46:10;;;;;;;5.73;3.13;;;;;;;23.93;31.84;95229.75;5074691;28;20536;-78
2022/05/10 09:48:37;;;;;;;8.40;3.23;;;;;;;24.21;32.84;95232.25;5074521;28;20552;-78
2022/05/10 09:51:24;;;;;;;4.63;3.67;;;;;;;24.57;33.43;95237.22;5074689;28;20447;-79
2022/05/10 09:53:53;;;;;;;3.17;2.97;;;;;;;24.78;31.29;95232.66;5074683;28;20448;-78
2022/05/10 09:56:34;;;;;;;5.87;3.40;;;;;;;24.78;31.22;95228.09;5022943;28;20440;-77
2022/05/10 09:59:05;;;;;;;3.90;2.40;;;;;;;24.71;31.39;95219.25;5024055;28;20455;-78
2022/05/10 10:01:42;;;;;;;5.87;2.80;;;;;;;24.18;31.01;95227.31;5074235;28;20447;-78
2022/05/10 10:04:21;;;;;;;3.43;3.17;;;;;;;24.17;32.73;95224.81;5074255;28;20510;-78
2022/05/10 10:07:05;;;;;;;3.93;3.10;;;;;;;24.05;32.62;95222.78;5073790;28;20839;-78
2022/05/10 10:09:33;;;;;;;4.97;2.90;;;;;;;23.97;32.30;95217.59;5074371;28;20492;-78
2022/05/10 10:12:01;;;;;;;5.70;3.97;;;;;;;24.10;34.74;95209.56;5074094;28;20449;-79
2022/05/10 10:14:40;;;;;;;3.63;2.70;;;;;;;24.17;34.19;95209.56;5073927;28;20452;-77
2022/05/10 10:17:16;;;;;;;3.70;2.80;;;;;;;24.04;32.04;95210.41;5074474;28;20445;-78
2022/05/10 10:19:48;;;;;;;2.97;2.77;;;;;;;24.16;32.53;95202.56;5005936;28;21099;-77
2022/05/10 10:22:18;;;;;;;3.20;3.00;;;;;;;24.34;31.38;95193.91;5074035;28;20447;-78
2022/05/10 10:24:54;;;;;;;4.03;3.00;;;;;;;24.54;31.59;95189.34;5073804;28;20782;-76
2022/05/10 10:27:29;;;;;;;4.13;2.83;;;;;;;24.40;31.08;95193.91;5073616;28;20842;-77
2022/05/10 10:30:02;;;;;;;6.43;3.20;;;;;;;24.53;30.80;95190.38;5074085;28;20765;-77
2022/05/10 10:32:35;;;;;;;6.03;2.57;;;;;;;24.53;31.45;95187.69;5073932;28;20563;-79
2022/05/10 10:35:05;;;;;;;6.60;3.27;;;;;;;24.30;32.16;95181.97;5074103;28;20449;-77
2022/05/10 10:37:39;;;;;;;2.60;2.40;;;;;;;23.64;31.28;95179.19;5038391;28;20493;-80
2022/05/10 10:40:13;;;;;;;4.13;3.23;;;;;;;23.87;32.67;95182.31;5073924;28;20436;-78
2022/05/10 10:42:49;;;;;;;3.03;2.60;;;;;;;23.59;32.05;95185.16;5073515;28;20444;-77
2022/05/10 10:45:18;;;;;;;4.03;3.20;;;;;;;23.35;31.63;95173.13;5073315;28;20441;-79
2022/05/10 10:47:52;;;;;;;4.27;3.20;;;;;;;23.47;32.24;95174.19;5073425;28;20909;-78
2022/05/10 10:50:25;;;;;;;3.47;3.17;;;;;;;23.42;32.13;95168.63;5073352;28;20796;-78
2022/05/10 10:52:54;;;;;;;5.50;2.80;;;;;;;23.73;31.85;95165.41;5073368;28;20448;-78
2022/05/10 10:55:23;;;;;;;2.70;2.50;;;;;;;23.98;33.11;95168.28;5073289;28;20447;-78
2022/05/10 10:58:04;;;;;;;5.10;2.97;;;;;;;24.10;31.85;95163.97;5073146;28;20449;-78
2022/05/10 11:00:39;;;;;;;5.40;3.40;;;;;;;24.05;32.27;95158.41;5073283;28;20445;-78
2022/05/10 11:03:09;;;;;;;3.63;3.33;;;;;;;23.94;30.69;95159.03;5022740;28;20440;-77
2022/05/10 11:06:17;;;;;;;3.30;2.90;;;;;;;23.99;30.69;95159.22;5072908;28;20436;-79
2022/05/10 11:09:00;;;;;;;6.63;2.83;;;;;;;24.18;31.02;95136.13;4991419;28;20481;-79
2022/05/10 11:11:37;;;;;;;5.93;2.87;;;;;;;24.46;30.07;95146.63;4991409;28;20449;-78
2022/05/10 11:14:18;;;;;;;3.47;2.47;;;;;;;24.63;30.43;95139.78;4991289;28;20463;-78
2022/05/10 11:16:56;;;;;;;4.80;2.73;;;;;;;24.38;30.46;95147.69;4991343;28;20447;-78
2022/05/10 11:19:51;;;;;;;7.33;3.50;;;;;;;24.51;31.34;95130.72;4990298;28;20484;-78
2022/05/10 11:22:31;;;;;;;3.23;2.93;;;;;;;24.59;29.93;95127.00;4917253;29;20538;-78
2022/05/10 11:25:09;;;;;;;3.37;2.80;;;;;;;24.50;28.70;95139.00;4933326;29;20451;-78
2022/05/10 11:27:57;;;;;;;13.13;4.73;;;;;;;24.78;28.68;95131.47;4933324;29;20482;-77
2022/05/10 11:30:28;;;;;;;5.13;2.90;;;;;;;24.97;28.71;95125.22;4933596;29;20560;-78
2022/05/10 11:33:10;;;;;;;3.70;3.40;;;;;;;24.94;28.24;95124.81;4933100;29;20491;-78
2022/05/10 11:35:55;;;;;;;3.50;3.17;;;;;;;24.65;27.98;95121.63;4933246;29;20450;-78
2022/05/10 11:38:37;;;;;;;3.70;3.33;;;;;;;24.84;27.67;95113.69;4888806;29;20459;-77
2022/05/10 11:41:11;;;;;;;4.63;2.83;;;;;;;25.00;27.97;95103.34;4933143;29;20443;-78
2022/05/10 11:44:10;;;;;;;3.23;2.93;;;;;;;24.80;27.63;95107.94;4901594;29;20442;-78
2022/05/10 11:47:17;;;;;;;3.73;3.33;;;;;;;24.97;30.45;95103.72;5010469;28;20760;-78
2022/05/10 11:50:28;;;;;;;6.97;3.27;;;;;;;24.89;29.63;95093.25;4932786;29;20965;-78
2022/05/10 11:53:16;;;;;;;5.67;3.30;;;;;;;24.92;27.99;95084.75;4894983;29;20461;-78
2022/05/10 11:55:55;;;;;;;3.10;2.90;;;;;;;25.02;29.63;95089.69;4895173;29;20511;-78
2022/05/10 11:58:24;;;;;;;3.80;2.90;;;;;;;24.83;28.93;95085.19;4895037;29;20453;-78
2022/05/10 12:00:54;;;;;;;2.80;2.60;;;;;;;24.50;28.42;95085.31;4952262;29;20504;-77
2022/05/10 12:03:53;;;;;;;2.87;2.57;;;;;;;24.51;28.72;95076.25;4951924;29;20821;-78